createdAt,value
2018-12-12T00:02:41.292Z,21.12
2018-12-12T00:07:43.818Z,21.09
2018-12-12T00:12:47.677Z,21.13
2018-12-12T00:17:50.649Z,21.14
2018-12-12T00:22:53.252Z,21.12
2018-12-12T00:27:55.936Z,21.14
2018-12-12T00:32:58.428Z,21.12
2018-12-12T00:38:00.928Z,21.11
2018-12-12T00:43:03.513Z,21.12
2018-12-12T00:48:06.000Z,21.10
2018-12-12T00:53:08.753Z,21.12
2018-12-12T00:58:11.400Z,21.13
2018-12-12T01:03:13.898Z,21.14
2018-12-12T01:08:16.483Z,21.10
2018-12-12T01:13:18.966Z,21.12
2018-12-12T01:18:21.473Z,21.10
2018-12-12T01:23:23.936Z,21.09
2018-12-12T01:28:26.437Z,21.14
2018-12-12T01:33:28.900Z,21.13
2018-12-12T01:38:31.431Z,21.14
2018-12-12T01:43:33.896Z,21.13
2018-12-12T01:48:36.612Z,21.12
2018-12-12T01:53:39.106Z,21.10
2018-12-12T01:58:41.654Z,21.11
2018-12-12T02:03:44.237Z,21.08
2018-12-12T02:08:46.738Z,21.05
2018-12-12T02:13:49.265Z,21.10
2018-12-12T02:18:51.904Z,21.10
2018-12-12T02:23:54.376Z,21.10
2018-12-12T02:28:56.869Z,21.13
2018-12-12T02:33:59.413Z,21.11
2018-12-12T02:39:02.006Z,21.09
2018-12-12T02:44:04.665Z,21.07
2018-12-12T02:49:07.292Z,21.09
2018-12-12T02:54:09.844Z,21.08
2018-12-12T02:59:12.341Z,21.03
2018-12-12T03:04:14.816Z,21.04
2018-12-12T03:09:17.816Z,21.06
2018-12-12T03:14:20.893Z,21.09
2018-12-12T03:19:23.524Z,21.08
2018-12-12T03:24:25.999Z,21.10
2018-12-12T03:29:28.462Z,21.09
2018-12-12T03:34:31.038Z,21.12
2018-12-12T03:39:33.578Z,21.08
2018-12-12T03:44:36.044Z,21.09
2018-12-12T03:49:38.787Z,21.08
2018-12-12T03:54:41.272Z,21.04
2018-12-12T03:59:43.736Z,21.06
2018-12-12T04:04:46.365Z,21.05
2018-12-12T04:09:48.876Z,21.08
2018-12-12T04:14:51.336Z,21.08
2018-12-12T04:19:53.836Z,21.10
2018-12-12T04:24:56.499Z,21.12
2018-12-12T04:29:59.013Z,21.11
2018-12-12T04:35:01.759Z,21.12
2018-12-12T04:40:06.008Z,21.11
2018-12-12T04:45:08.533Z,21.12
2018-12-12T04:50:11.036Z,21.11
2018-12-12T04:55:13.564Z,21.08
2018-12-12T05:00:16.036Z,21.06
2018-12-12T05:05:19.422Z,21.04
2018-12-12T05:10:21.904Z,21.03
2018-12-12T05:15:24.413Z,21.07
2018-12-12T05:20:26.880Z,21.07
2018-12-12T05:25:29.673Z,21.08
2018-12-12T05:30:32.146Z,21.11
2018-12-12T05:35:34.619Z,21.10
2018-12-12T05:40:37.304Z,21.10
2018-12-12T05:45:39.905Z,21.06
2018-12-12T05:50:42.364Z,21.00
2018-12-12T05:55:44.881Z,21.07
2018-12-12T06:00:47.447Z,21.06
2018-12-12T06:05:49.932Z,21.02
2018-12-12T06:10:52.435Z,21.01
2018-12-12T06:15:55.140Z,20.99
2018-12-12T06:20:57.637Z,20.98
2018-12-12T06:26:00.117Z,20.96
2018-12-12T06:31:02.584Z,21.04
2018-12-12T06:36:05.081Z,21.07
2018-12-12T06:41:07.589Z,21.08
2018-12-12T06:46:10.061Z,21.09
2018-12-12T06:51:12.527Z,21.06
2018-12-12T06:56:14.993Z,21.05
2018-12-12T07:01:17.464Z,21.03
2018-12-12T07:06:19.961Z,21.03
2018-12-12T07:11:22.457Z,21.00
2018-12-12T07:16:24.957Z,21.00
2018-12-12T07:21:27.463Z,20.98
2018-12-12T07:26:30.133Z,20.96
2018-12-12T07:31:32.670Z,20.98
2018-12-12T07:36:35.423Z,20.98
2018-12-12T07:41:38.145Z,20.99
2018-12-12T07:46:40.675Z,21.05
2018-12-12T07:51:43.145Z,21.05
2018-12-12T07:56:45.618Z,21.03
2018-12-12T08:01:48.080Z,21.01
2018-12-12T08:06:50.578Z,20.98
2018-12-12T08:11:53.050Z,20.96
2018-12-12T08:16:55.512Z,20.98
2018-12-12T08:21:58.002Z,20.87
2018-12-12T08:27:00.525Z,19.88
2018-12-12T08:32:02.992Z,19.35
2018-12-12T08:37:05.527Z,19.01
2018-12-12T08:42:08.012Z,18.88
2018-12-12T08:47:10.517Z,18.43
2018-12-12T08:52:13.041Z,18.12
2018-12-12T08:57:15.737Z,17.98
2018-12-12T09:02:18.232Z,17.81
2018-12-12T09:07:20.715Z,18.29
2018-12-12T09:12:23.381Z,18.93
2018-12-12T09:17:25.844Z,19.27
2018-12-12T09:22:28.308Z,19.47
2018-12-12T09:27:30.864Z,19.62
2018-12-12T09:32:33.356Z,19.75
2018-12-12T09:37:35.832Z,19.88
2018-12-12T09:42:38.303Z,19.96
2018-12-12T09:47:40.813Z,20.07
2018-12-12T09:52:43.349Z,20.14
2018-12-12T09:57:45.909Z,20.18
2018-12-12T10:02:48.509Z,20.24
2018-12-12T10:07:50.981Z,20.29
2018-12-12T10:12:53.453Z,20.35
2018-12-12T10:17:55.933Z,20.38
2018-12-12T10:22:58.574Z,20.42
2018-12-12T10:28:01.073Z,20.46
2018-12-12T10:33:03.594Z,20.50
2018-12-12T10:38:06.068Z,20.54
2018-12-12T10:43:08.535Z,20.57
2018-12-12T10:48:11.404Z,20.59
2018-12-12T10:53:13.875Z,20.67
2018-12-12T10:58:17.137Z,20.71
2018-12-12T11:03:25.191Z,20.77
2018-12-12T11:08:27.732Z,20.80
2018-12-12T11:13:30.222Z,20.84
2018-12-12T11:18:32.836Z,20.89
2018-12-12T11:23:35.339Z,20.92
2018-12-12T11:28:37.829Z,20.94
2018-12-12T11:33:40.292Z,20.98
2018-12-12T11:38:42.803Z,21.03
2018-12-12T11:43:45.267Z,20.90
2018-12-12T11:48:47.825Z,20.90
2018-12-12T11:53:50.494Z,20.93
2018-12-12T11:58:53.189Z,20.93
2018-12-12T12:03:56.867Z,20.93
2018-12-12T12:08:59.750Z,20.95
2018-12-12T12:14:02.275Z,20.93
2018-12-12T12:19:04.768Z,20.88
2018-12-12T12:24:07.239Z,20.94
2018-12-12T12:29:09.729Z,20.96
2018-12-12T12:34:12.376Z,20.99
2018-12-12T12:39:16.083Z,21.06
2018-12-12T12:44:18.887Z,21.09
2018-12-12T12:49:21.372Z,21.12
2018-12-12T12:54:23.961Z,21.14
2018-12-12T12:59:26.433Z,21.16
2018-12-12T13:04:28.928Z,21.14
2018-12-12T13:09:31.979Z,21.18
2018-12-12T13:14:34.444Z,21.19
2018-12-12T13:19:36.997Z,21.19
2018-12-12T13:24:39.490Z,21.23
2018-12-12T13:29:41.956Z,21.23
2018-12-12T13:34:44.735Z,21.22
2018-12-12T13:39:47.240Z,21.22
2018-12-12T13:44:49.751Z,21.20
2018-12-12T13:49:52.776Z,21.19
2018-12-12T13:54:55.299Z,21.17
2018-12-12T13:59:57.997Z,21.17
2018-12-12T14:05:00.481Z,21.23
2018-12-12T14:10:03.393Z,21.27
2018-12-12T14:15:06.116Z,21.26
2018-12-12T14:20:08.904Z,21.26
2018-12-12T14:25:11.433Z,21.23
2018-12-12T14:30:14.757Z,21.21
2018-12-12T14:35:17.299Z,21.21
2018-12-12T14:40:19.792Z,21.23
2018-12-12T14:45:22.280Z,21.22
2018-12-12T14:50:24.913Z,21.30
2018-12-12T14:55:27.965Z,21.32
2018-12-12T15:00:30.856Z,21.29
2018-12-12T15:05:33.324Z,21.32
2018-12-12T15:10:35.812Z,21.32
2018-12-12T15:15:39.132Z,21.32
2018-12-12T15:20:42.460Z,21.46
2018-12-12T15:25:44.935Z,21.51
2018-12-12T15:30:47.549Z,21.53
2018-12-12T15:35:50.010Z,21.58
2018-12-12T15:40:52.521Z,21.66
2018-12-12T15:45:55.053Z,21.70
2018-12-12T15:50:57.654Z,21.73
2018-12-12T15:56:00.144Z,21.71
2018-12-12T16:01:02.613Z,21.67
2018-12-12T16:06:05.212Z,21.69
2018-12-12T16:11:08.358Z,21.68
2018-12-12T16:16:11.180Z,21.70
2018-12-12T16:21:13.872Z,21.67
2018-12-12T16:26:16.371Z,21.71
2018-12-12T16:31:18.860Z,21.68
2018-12-12T16:36:21.324Z,21.67
2018-12-12T16:41:24.142Z,21.67
2018-12-12T16:46:26.641Z,21.65
2018-12-12T16:51:29.113Z,21.65
2018-12-12T16:56:31.575Z,21.66
2018-12-12T17:01:34.045Z,21.60
2018-12-12T17:06:36.516Z,21.52
2018-12-12T17:11:39.008Z,21.46
2018-12-12T17:16:41.484Z,21.39
2018-12-12T17:21:43.961Z,21.40
2018-12-12T17:26:46.455Z,21.39
2018-12-12T17:31:48.948Z,21.42
2018-12-12T17:36:51.417Z,21.47
2018-12-12T17:41:53.886Z,21.48
2018-12-12T17:46:56.381Z,21.44
2018-12-12T17:51:58.845Z,21.48
2018-12-12T17:57:01.319Z,21.53
2018-12-12T18:02:04.263Z,21.42
2018-12-12T18:07:06.724Z,21.41
2018-12-12T18:12:09.197Z,21.27
2018-12-12T18:17:12.489Z,21.28
2018-12-12T18:22:14.955Z,21.23
2018-12-12T18:27:17.458Z,21.20
2018-12-12T18:32:20.861Z,21.29
2018-12-12T18:37:23.361Z,21.34
2018-12-12T18:42:25.855Z,21.32
2018-12-12T18:47:28.319Z,21.34
2018-12-12T18:52:30.852Z,21.30
2018-12-12T18:57:33.403Z,21.26
2018-12-12T19:02:35.903Z,21.25
2018-12-12T19:07:39.135Z,21.24
2018-12-12T19:12:41.627Z,21.29
2018-12-12T19:17:44.275Z,21.30
2018-12-12T19:22:46.749Z,21.29
2018-12-12T19:27:49.392Z,21.28
2018-12-12T19:32:51.859Z,21.29
2018-12-12T19:37:54.328Z,21.29
2018-12-12T19:42:56.787Z,21.26
2018-12-12T19:47:59.249Z,21.27
2018-12-12T19:53:01.722Z,21.23
2018-12-12T19:58:04.216Z,21.19
2018-12-12T20:03:06.730Z,21.16
2018-12-12T20:08:09.809Z,21.10
2018-12-12T20:13:12.285Z,21.09
2018-12-12T20:18:15.629Z,21.09
2018-12-12T20:23:18.113Z,21.12
2018-12-12T20:28:20.592Z,21.12
2018-12-12T20:33:23.084Z,21.10
2018-12-12T20:38:25.592Z,21.09
2018-12-12T20:43:28.280Z,21.07
2018-12-12T20:48:30.749Z,21.06
2018-12-12T20:53:33.224Z,21.06
2018-12-12T20:58:35.944Z,21.13
2018-12-12T21:03:39.161Z,21.13
2018-12-12T21:08:41.708Z,21.08
2018-12-12T21:13:44.196Z,21.11
2018-12-12T21:18:46.694Z,21.08
2018-12-12T21:23:49.165Z,21.10
2018-12-12T21:28:51.672Z,21.12
2018-12-12T21:33:54.132Z,21.07
2018-12-12T21:38:56.645Z,21.06
2018-12-12T21:43:59.974Z,21.07
2018-12-12T21:49:02.643Z,21.08
2018-12-12T21:54:05.719Z,21.06
2018-12-12T21:59:08.200Z,21.12
2018-12-12T22:04:10.688Z,21.07
2018-12-12T22:09:13.165Z,21.09
2018-12-12T22:14:15.627Z,21.08
2018-12-12T22:19:18.120Z,21.08
2018-12-12T22:24:20.690Z,21.06
2018-12-12T22:29:23.176Z,21.06
2018-12-12T22:34:25.636Z,21.04
2018-12-12T22:39:28.152Z,21.09
2018-12-12T22:44:30.751Z,21.02
2018-12-12T22:49:33.216Z,21.04
2018-12-12T22:54:35.684Z,21.05
2018-12-12T22:59:38.149Z,21.05
2018-12-12T23:04:40.909Z,21.07
2018-12-12T23:09:43.427Z,21.06
2018-12-12T23:14:46.812Z,21.04
2018-12-12T23:19:49.278Z,21.05
2018-12-12T23:24:51.761Z,21.05
2018-12-12T23:29:54.398Z,21.04
2018-12-12T23:34:57.108Z,21.06
2018-12-12T23:39:59.577Z,21.04
2018-12-12T23:45:02.204Z,21.04
2018-12-12T23:50:05.648Z,21.05
2018-12-12T23:55:08.312Z,21.06
